createdAt,value
2022-11-21T00:01:23.706Z,83.98
2022-11-21T00:03:50.234Z,83.86
2022-11-21T00:06:17.665Z,83.79
2022-11-21T00:08:44.830Z,83.79
2022-11-21T00:11:13.153Z,83.93
2022-11-21T00:13:39.668Z,84.02
2022-11-21T00:16:07.806Z,84.03
2022-11-21T00:18:35.325Z,84.11
2022-11-21T00:21:07.381Z,84.04
2022-11-21T00:23:34.165Z,84.29
2022-11-21T00:26:04.531Z,84.56
2022-11-21T00:28:30.983Z,84.50
2022-11-21T00:30:57.463Z,84.27
2022-11-21T00:33:24.044Z,83.85
2022-11-21T00:35:51.588Z,83.99
2022-11-21T00:38:18.766Z,84.08
2022-11-21T00:40:45.716Z,84.18
2022-11-21T00:43:12.318Z,84.13
2022-11-21T00:45:39.791Z,84.22
2022-11-21T00:48:06.634Z,84.32
2022-11-21T00:50:33.209Z,84.28
2022-11-21T00:52:59.616Z,84.22
2022-11-21T00:55:26.100Z,84.35
2022-11-21T00:57:52.498Z,84.47
2022-11-21T01:00:19.145Z,84.59
2022-11-21T01:02:45.655Z,84.66
2022-11-21T01:05:12.108Z,84.57
2022-11-21T01:07:38.557Z,84.66
2022-11-21T01:10:08.349Z,84.83
2022-11-21T01:12:34.810Z,84.78
2022-11-21T01:15:04.376Z,84.97
2022-11-21T01:17:32.950Z,84.75
2022-11-21T01:19:59.572Z,84.78
2022-11-21T01:22:27.822Z,85.02
2022-11-21T01:24:54.277Z,85.21
2022-11-21T01:27:20.653Z,85.63
2022-11-21T01:29:49.040Z,85.83
2022-11-21T01:32:15.438Z,85.95
2022-11-21T01:34:44.540Z,86.16
2022-11-21T01:37:13.732Z,86.23
2022-11-21T01:39:40.158Z,86.37
2022-11-21T01:42:06.567Z,86.46
2022-11-21T01:44:54.368Z,86.78
2022-11-21T01:47:22.703Z,86.70
2022-11-21T01:49:50.966Z,86.74
2022-11-21T01:52:25.451Z,86.73
2022-11-21T01:55:00.679Z,86.87
2022-11-21T01:57:30.539Z,87.09
2022-11-21T02:00:19.858Z,87.21
2022-11-21T02:02:51.434Z,87.38
2022-11-21T02:05:21.964Z,87.16
2022-11-21T02:07:49.513Z,86.79
2022-11-21T02:10:16.617Z,86.73
2022-11-21T02:12:50.228Z,86.82
2022-11-21T02:15:18.476Z,86.57
2022-11-21T02:17:44.913Z,86.31
2022-11-21T02:20:14.328Z,86.01
2022-11-21T02:23:07.665Z,85.78
2022-11-21T02:25:36.914Z,86.09
2022-11-21T02:28:09.160Z,86.09
2022-11-21T02:30:38.869Z,86.37
2022-11-21T02:33:06.131Z,86.52
2022-11-21T02:35:33.832Z,86.82
2022-11-21T02:38:07.983Z,87.06
2022-11-21T02:40:39.861Z,87.18
2022-11-21T02:43:31.387Z,87.37
2022-11-21T02:45:59.046Z,87.59
2022-11-21T02:48:25.498Z,87.61
2022-11-21T02:50:51.989Z,87.96
2022-11-21T02:53:19.184Z,88.22
2022-11-21T02:55:48.620Z,88.71
2022-11-21T02:58:17.910Z,88.98
2022-11-21T03:00:45.490Z,89.35
2022-11-21T03:03:12.217Z,89.59
2022-11-21T03:05:39.955Z,89.52
2022-11-21T03:08:07.260Z,89.67
2022-11-21T03:10:34.448Z,89.67
2022-11-21T03:13:03.164Z,89.74
2022-11-21T03:15:32.336Z,89.73
2022-11-21T03:18:01.134Z,89.92
2022-11-21T03:20:27.539Z,89.91
2022-11-21T03:22:54.291Z,89.95
2022-11-21T03:25:21.149Z,89.96
2022-11-21T03:27:50.990Z,90.03
2022-11-21T03:30:17.513Z,89.78
2022-11-21T03:32:43.901Z,90.15
2022-11-21T03:35:12.122Z,90.07
2022-11-21T03:37:38.491Z,90.24
2022-11-21T03:40:05.577Z,90.31
2022-11-21T03:42:32.119Z,90.33
2022-11-21T03:44:58.585Z,90.37
2022-11-21T03:47:27.315Z,90.20
2022-11-21T03:49:53.961Z,90.53
2022-11-21T03:52:20.423Z,90.33
2022-11-21T03:54:48.782Z,90.28
2022-11-21T03:57:15.444Z,90.26
2022-11-21T03:59:41.867Z,90.46
2022-11-21T04:02:08.474Z,90.65
2022-11-21T04:04:34.892Z,90.63
2022-11-21T04:07:01.331Z,90.75
2022-11-21T04:09:27.784Z,91.05
2022-11-21T04:11:54.196Z,91.07
2022-11-21T04:14:20.587Z,91.08
2022-11-21T04:16:46.947Z,91.17
2022-11-21T04:19:13.349Z,91.05
2022-11-21T04:21:42.196Z,91.06
2022-11-21T04:24:08.880Z,91.01
2022-11-21T04:26:35.258Z,90.88
2022-11-21T04:29:02.862Z,91.25
2022-11-21T04:31:32.351Z,91.14
2022-11-21T04:33:58.752Z,90.93
2022-11-21T04:36:25.384Z,91.29
2022-11-21T04:38:51.845Z,91.38
2022-11-21T04:41:18.241Z,91.27
2022-11-21T04:43:44.773Z,91.38
2022-11-21T04:46:11.179Z,91.42
2022-11-21T04:48:37.605Z,91.31
2022-11-21T04:51:04.014Z,91.32
2022-11-21T04:53:30.385Z,91.27
2022-11-21T04:55:56.962Z,91.70
2022-11-21T04:58:23.435Z,91.63
2022-11-21T05:00:49.852Z,91.66
2022-11-21T05:03:16.401Z,91.71
2022-11-21T05:05:42.993Z,91.74
2022-11-21T05:08:09.428Z,91.63
2022-11-21T05:10:55.787Z,91.46
2022-11-21T05:13:22.310Z,91.54
2022-11-21T05:15:51.917Z,91.67
2022-11-21T05:18:21.771Z,91.95
2022-11-21T05:20:48.254Z,91.77
2022-11-21T05:23:14.654Z,91.99
2022-11-21T05:25:41.211Z,92.22
2022-11-21T05:28:08.879Z,92.12
2022-11-21T05:30:35.504Z,92.07
2022-11-21T05:33:01.886Z,92.32
2022-11-21T05:35:28.344Z,92.25
2022-11-21T05:37:58.761Z,92.57
2022-11-21T05:40:25.753Z,92.40
2022-11-21T05:43:10.779Z,91.98
2022-11-21T05:45:37.226Z,91.85
2022-11-21T05:48:07.876Z,91.79
2022-11-21T05:50:35.806Z,91.68
2022-11-21T05:53:06.346Z,91.72
2022-11-21T05:55:35.790Z,91.91
2022-11-21T05:58:02.628Z,92.02
2022-11-21T06:00:29.425Z,91.94
2022-11-21T06:03:15.231Z,91.87
2022-11-21T06:05:41.728Z,91.59
2022-11-21T06:08:08.426Z,91.58
2022-11-21T06:10:34.899Z,91.81
2022-11-21T06:13:02.250Z,91.46
2022-11-21T06:15:29.413Z,91.30
2022-11-21T06:17:55.802Z,91.14
2022-11-21T06:20:22.226Z,91.36
2022-11-21T06:22:48.659Z,91.30
2022-11-21T06:25:15.250Z,91.51
2022-11-21T06:27:41.746Z,91.74
2022-11-21T06:30:08.669Z,91.76
2022-11-21T06:32:38.589Z,91.83
2022-11-21T06:35:07.902Z,92.05
2022-11-21T06:37:36.685Z,91.98
2022-11-21T06:40:03.277Z,91.88
2022-11-21T06:42:29.719Z,91.79
2022-11-21T06:44:56.178Z,91.80
2022-11-21T06:47:22.616Z,91.83
2022-11-21T06:49:49.058Z,91.94
2022-11-21T06:52:15.499Z,92.26
2022-11-21T06:54:41.930Z,92.41
2022-11-21T06:57:08.362Z,92.30
2022-11-21T06:59:34.891Z,92.04
2022-11-21T07:02:01.313Z,91.88
2022-11-21T07:04:28.053Z,91.93
2022-11-21T07:06:54.657Z,91.92
2022-11-21T07:09:36.416Z,91.71
2022-11-21T07:12:21.414Z,91.74
2022-11-21T07:14:47.903Z,91.61
2022-11-21T07:17:15.262Z,91.66
2022-11-21T07:19:41.679Z,91.06
2022-11-21T07:22:10.970Z,90.97
2022-11-21T07:24:37.644Z,91.07
2022-11-21T07:27:04.204Z,91.27
2022-11-21T07:29:32.479Z,91.40
2022-11-21T07:31:58.903Z,91.63
2022-11-21T07:34:25.304Z,91.73
2022-11-21T07:36:51.784Z,91.34
2022-11-21T07:39:18.170Z,91.33
2022-11-21T07:41:44.669Z,91.40
2022-11-21T07:44:11.044Z,91.10
2022-11-21T07:46:37.418Z,90.70
2022-11-21T07:49:04.064Z,90.71
2022-11-21T07:51:30.601Z,90.83
2022-11-21T07:53:56.965Z,90.66
2022-11-21T07:56:28.410Z,90.70
2022-11-21T07:58:54.854Z,90.81
2022-11-21T08:01:24.371Z,90.91
2022-11-21T08:03:50.805Z,91.02
2022-11-21T08:06:17.210Z,91.14
2022-11-21T08:08:43.617Z,90.86
2022-11-21T08:11:09.978Z,91.14
2022-11-21T08:13:36.390Z,91.01
2022-11-21T08:16:07.556Z,91.09
2022-11-21T08:18:33.898Z,90.99
2022-11-21T08:21:02.374Z,90.90
2022-11-21T08:23:28.987Z,90.67
2022-11-21T08:25:58.313Z,90.55
2022-11-21T08:28:24.752Z,90.70
2022-11-21T08:30:51.180Z,90.69
2022-11-21T08:33:17.556Z,90.69
2022-11-21T08:35:43.921Z,90.60
2022-11-21T08:38:10.302Z,90.91
2022-11-21T08:40:36.853Z,90.82
2022-11-21T08:43:08.671Z,90.86
2022-11-21T08:45:36.731Z,91.03
2022-11-21T08:48:03.285Z,91.03
2022-11-21T08:50:29.983Z,90.95
2022-11-21T08:53:04.015Z,91.01
2022-11-21T08:55:31.048Z,91.23
2022-11-21T08:57:57.810Z,91.35
2022-11-21T09:00:24.344Z,91.69
2022-11-21T09:02:50.846Z,91.68
2022-11-21T09:05:17.419Z,91.96
2022-11-21T09:07:47.546Z,92.12
2022-11-21T09:10:17.368Z,92.27
2022-11-21T09:12:46.188Z,92.33
2022-11-21T09:15:33.778Z,92.22
2022-11-21T09:18:04.272Z,92.29
2022-11-21T09:20:33.518Z,92.05
2022-11-21T09:23:16.622Z,92.20
2022-11-21T09:25:44.065Z,91.95
2022-11-21T09:28:12.462Z,91.80
2022-11-21T09:30:39.732Z,91.82
2022-11-21T09:33:08.344Z,91.56
2022-11-21T09:35:34.798Z,91.79
2022-11-21T09:38:01.305Z,91.60
2022-11-21T09:40:30.451Z,91.21
2022-11-21T09:42:56.837Z,90.61
2022-11-21T09:45:25.745Z,90.05
2022-11-21T09:47:53.007Z,89.73
2022-11-21T09:50:36.483Z,89.59
2022-11-21T09:53:18.157Z,89.16
2022-11-21T09:55:51.811Z,88.98
2022-11-21T09:58:50.553Z,89.12
2022-11-21T10:01:17.414Z,89.03
2022-11-21T10:03:54.574Z,88.69
2022-11-21T10:06:24.223Z,88.88
2022-11-21T10:09:06.123Z,89.08
2022-11-21T10:11:58.411Z,89.11
2022-11-21T10:14:45.056Z,89.04
2022-11-21T10:17:45.335Z,88.62
2022-11-21T10:20:36.339Z,87.99
2022-11-21T10:23:24.838Z,88.05
2022-11-21T10:25:59.696Z,87.13
2022-11-21T10:28:29.383Z,86.38
2022-11-21T10:30:59.306Z,85.99
2022-11-21T10:33:40.254Z,86.20
2022-11-21T10:36:28.764Z,85.03
2022-11-21T10:39:10.290Z,84.93
2022-11-21T10:41:48.484Z,83.98
2022-11-21T10:44:47.871Z,83.76
2022-11-21T10:47:27.593Z,83.06
2022-11-21T10:50:28.429Z,81.46
2022-11-21T10:53:38.512Z,81.16
2022-11-21T10:56:14.822Z,81.38
2022-11-21T10:58:57.242Z,81.67
2022-11-21T11:01:27.199Z,81.30
2022-11-21T11:04:29.180Z,80.47
2022-11-21T11:06:58.117Z,80.69
2022-11-21T11:09:35.057Z,79.55
2022-11-21T11:12:23.817Z,78.82
2022-11-21T11:14:53.012Z,78.59
2022-11-21T11:17:33.714Z,77.96
2022-11-21T11:20:03.797Z,77.67
2022-11-21T11:22:30.666Z,78.36
2022-11-21T11:25:00.534Z,78.82
2022-11-21T11:27:29.412Z,78.69
2022-11-21T11:29:58.530Z,76.62
2022-11-21T11:32:27.496Z,75.59
2022-11-21T11:35:17.115Z,74.89
2022-11-21T11:38:07.915Z,75.02
2022-11-21T11:40:41.578Z,74.93
2022-11-21T11:43:29.625Z,75.33
2022-11-21T11:46:40.968Z,74.61
2022-11-21T11:49:21.056Z,74.39
2022-11-21T11:52:03.961Z,73.12
2022-11-21T11:54:38.317Z,74.67
2022-11-21T11:57:05.189Z,74.54
2022-11-21T11:59:39.224Z,74.65
2022-11-21T12:02:18.053Z,74.80
2022-11-21T12:04:50.108Z,74.92
2022-11-21T12:08:27.614Z,72.83
2022-11-21T12:10:28.625Z,69.90
2022-11-21T12:13:11.176Z,66.73
2022-11-21T12:15:50.106Z,65.15
2022-11-21T12:18:19.575Z,64.76
2022-11-21T12:21:24.635Z,62.79
2022-11-21T12:23:53.848Z,60.50
2022-11-21T12:26:20.192Z,60.28
2022-11-21T12:29:26.165Z,58.88
2022-11-21T12:32:04.680Z,55.56
2022-11-21T12:34:45.254Z,54.70
2022-11-21T12:37:32.415Z,50.76
2022-11-21T12:40:18.924Z,49.09
2022-11-21T12:42:59.559Z,47.26
2022-11-21T12:46:21.306Z,46.70
2022-11-21T12:49:39.569Z,43.84
2022-11-21T12:52:53.728Z,42.92
2022-11-21T12:55:37.771Z,42.26
2022-11-21T12:58:26.887Z,42.22
2022-11-21T13:01:21.093Z,41.42
2022-11-21T13:04:05.700Z,40.73
2022-11-21T13:06:39.419Z,39.51
2022-11-21T13:09:09.808Z,38.42
2022-11-21T13:12:00.608Z,37.82
2022-11-21T13:14:42.154Z,38.04
2022-11-21T13:17:36.556Z,38.33
2022-11-21T13:20:27.823Z,38.30
2022-11-21T13:22:57.118Z,38.06
2022-11-21T13:25:32.813Z,39.08
2022-11-21T13:28:14.571Z,38.46
2022-11-21T13:30:57.259Z,37.52
2022-11-21T13:33:48.185Z,37.17
2022-11-21T13:36:30.101Z,36.31
2022-11-21T13:39:01.394Z,36.04
2022-11-21T13:42:06.286Z,35.62
2022-11-21T13:44:32.811Z,35.88
2022-11-21T13:47:30.832Z,35.06
2022-11-21T13:50:07.798Z,35.34
2022-11-21T13:52:47.001Z,35.07
2022-11-21T13:55:19.163Z,35.13
2022-11-21T13:57:53.548Z,35.48
2022-11-21T14:00:38.345Z,35.81
2022-11-21T14:03:05.076Z,36.14
2022-11-21T14:05:53.517Z,36.04
2022-11-21T14:08:23.382Z,35.92
2022-11-21T14:10:55.073Z,35.15
2022-11-21T14:13:38.423Z,36.13
2022-11-21T14:16:21.850Z,35.59
2022-11-21T14:18:54.589Z,34.40
2022-11-21T14:21:26.980Z,33.97
2022-11-21T14:24:13.169Z,34.02
2022-11-21T14:26:43.730Z,34.12
2022-11-21T14:29:18.789Z,34.57
2022-11-21T14:31:47.280Z,35.12
2022-11-21T14:34:24.450Z,35.76
2022-11-21T14:36:51.141Z,36.55
2022-11-21T14:42:17.446Z,38.54
2022-11-21T14:44:44.188Z,39.13
2022-11-21T14:47:25.694Z,39.41
2022-11-21T14:49:55.266Z,41.16
2022-11-21T14:52:26.586Z,42.76
2022-11-21T14:55:28.689Z,43.97
2022-11-21T14:57:46.164Z,46.04
2022-11-21T15:03:05.188Z,51.29
2022-11-21T15:06:00.695Z,54.14
2022-11-21T15:08:53.808Z,56.97
2022-11-21T15:11:17.000Z,59.43
2022-11-21T15:16:40.921Z,62.52
2022-11-21T15:19:11.167Z,63.38
2022-11-21T15:21:44.490Z,65.33
2022-11-21T15:24:26.663Z,67.05
2022-11-21T15:26:53.206Z,69.01
2022-11-21T15:29:21.899Z,70.42
2022-11-21T15:32:09.147Z,71.41
2022-11-21T15:34:37.138Z,71.53
2022-11-21T15:37:12.661Z,72.21
2022-11-21T15:39:44.446Z,72.25
2022-11-21T15:42:32.635Z,72.77
2022-11-21T15:45:20.387Z,73.62
2022-11-21T15:47:47.547Z,74.17
2022-11-21T15:50:14.738Z,74.84
2022-11-21T15:52:48.873Z,75.23
2022-11-21T15:55:19.768Z,76.32
2022-11-21T15:57:46.996Z,76.37
2022-11-21T16:00:14.268Z,76.38
2022-11-21T16:02:40.617Z,77.64
2022-11-21T16:05:12.263Z,77.78
2022-11-21T16:07:38.704Z,78.30
2022-11-21T16:10:10.136Z,78.52
2022-11-21T16:12:41.934Z,78.87
2022-11-21T16:15:08.895Z,78.83
2022-11-21T16:17:35.314Z,79.15
2022-11-21T16:20:01.775Z,79.42
2022-11-21T16:22:28.160Z,79.37
2022-11-21T16:24:54.490Z,79.69
2022-11-21T16:27:20.916Z,79.72
2022-11-21T16:29:47.600Z,79.86
2022-11-21T16:32:14.063Z,80.15
2022-11-21T16:34:40.429Z,80.41
2022-11-21T16:37:07.713Z,80.86
2022-11-21T16:39:34.802Z,81.48
2022-11-21T16:42:01.651Z,81.50
2022-11-21T16:44:30.823Z,82.25
2022-11-21T16:46:57.372Z,82.23
2022-11-21T16:49:24.643Z,82.71
2022-11-21T16:51:53.413Z,82.98
2022-11-21T16:54:22.129Z,83.17
2022-11-21T16:56:48.546Z,83.46
2022-11-21T16:59:15.042Z,83.70
2022-11-21T17:01:41.639Z,83.39
2022-11-21T17:04:11.457Z,83.12
2022-11-21T17:06:41.771Z,82.84
2022-11-21T17:09:08.200Z,82.66
2022-11-21T17:11:34.652Z,82.56
2022-11-21T17:14:03.654Z,82.30
2022-11-21T17:16:30.725Z,82.16
2022-11-21T17:18:59.695Z,81.85
2022-11-21T17:21:28.034Z,81.73
2022-11-21T17:23:54.996Z,81.66
2022-11-21T17:26:24.001Z,81.89
2022-11-21T17:29:03.275Z,81.93
2022-11-21T17:31:32.537Z,82.39
2022-11-21T17:34:01.082Z,82.38
2022-11-21T17:36:29.619Z,82.77
2022-11-21T17:38:58.077Z,83.31
2022-11-21T17:41:25.548Z,83.53
2022-11-21T17:43:59.609Z,83.60
2022-11-21T17:46:27.262Z,84.00
2022-11-21T17:48:58.028Z,84.43
2022-11-21T17:51:32.829Z,84.65
2022-11-21T17:54:00.759Z,85.00
2022-11-21T17:56:30.429Z,85.17
2022-11-21T17:58:56.918Z,85.14
2022-11-21T18:01:26.652Z,85.38
2022-11-21T18:03:56.821Z,85.78
2022-11-21T18:06:24.419Z,85.79
2022-11-21T18:08:50.893Z,85.79
2022-11-21T18:11:21.020Z,86.40
2022-11-21T18:13:48.746Z,86.87
2022-11-21T18:16:20.996Z,86.96
2022-11-21T18:18:47.845Z,87.16
2022-11-21T18:21:20.058Z,87.42
2022-11-21T18:23:47.182Z,87.47
2022-11-21T18:26:16.596Z,87.58
2022-11-21T18:28:45.472Z,87.61
2022-11-21T18:31:14.595Z,87.76
2022-11-21T18:33:41.992Z,87.96
2022-11-21T18:36:10.565Z,87.75
2022-11-21T18:39:00.566Z,87.80
2022-11-21T18:41:31.578Z,87.87
2022-11-21T18:44:02.926Z,87.84
2022-11-21T18:46:31.660Z,87.75
2022-11-21T18:49:05.910Z,87.76
2022-11-21T18:51:33.860Z,87.83
2022-11-21T18:54:07.359Z,87.69
2022-11-21T18:56:35.142Z,87.48
2022-11-21T18:59:03.307Z,87.38
2022-11-21T19:01:31.950Z,87.35
2022-11-21T19:03:58.991Z,87.21
2022-11-21T19:06:27.143Z,87.15
2022-11-21T19:08:55.152Z,87.23
2022-11-21T19:11:27.033Z,86.97
2022-11-21T19:13:54.599Z,86.91
2022-11-21T19:16:26.931Z,86.80
2022-11-21T19:21:41.240Z,86.28
2022-11-21T19:24:13.017Z,86.07
2022-11-21T19:26:40.153Z,85.90
2022-11-21T19:29:06.664Z,85.69
2022-11-21T19:31:33.109Z,85.72
2022-11-21T19:34:00.001Z,85.91
2022-11-21T19:36:26.425Z,86.02
2022-11-21T19:38:53.188Z,86.34
2022-11-21T19:41:26.187Z,86.62
2022-11-21T19:43:56.196Z,86.87
2022-11-21T19:46:27.597Z,86.75
2022-11-21T19:48:56.181Z,87.10
2022-11-21T19:51:36.279Z,87.23
2022-11-21T19:54:04.092Z,87.35
2022-11-21T19:56:30.764Z,87.40
2022-11-21T19:58:58.379Z,87.35
2022-11-21T20:01:35.571Z,87.18
2022-11-21T20:04:04.441Z,87.06
2022-11-21T20:06:36.932Z,86.77
2022-11-21T20:09:07.059Z,86.81
2022-11-21T20:11:34.204Z,86.93
2022-11-21T20:14:00.918Z,86.86
2022-11-21T20:16:41.278Z,86.81
2022-11-21T20:19:11.335Z,87.19
2022-11-21T20:21:38.762Z,87.55
2022-11-21T20:24:05.932Z,87.71
2022-11-21T20:26:33.333Z,87.82
2022-11-21T20:29:00.390Z,87.69
2022-11-21T20:31:29.542Z,87.68
2022-11-21T20:33:58.247Z,87.50
2022-11-21T20:36:26.726Z,87.38
2022-11-21T20:39:02.413Z,87.41
2022-11-21T20:41:31.389Z,87.57
2022-11-21T20:46:48.435Z,87.78
2022-11-21T20:49:15.006Z,87.66
2022-11-21T20:54:30.337Z,87.44
2022-11-21T20:56:56.932Z,87.52
2022-11-21T20:59:23.354Z,87.44
2022-11-21T21:01:49.823Z,87.44
2022-11-21T21:04:16.410Z,87.43
2022-11-21T21:06:42.859Z,87.48
2022-11-21T21:09:09.334Z,87.40
2022-11-21T21:11:52.902Z,87.53
2022-11-21T21:14:21.412Z,87.73
2022-11-21T21:16:48.381Z,87.68
2022-11-21T21:19:14.902Z,87.65
2022-11-21T21:21:41.448Z,87.58
2022-11-21T21:24:09.997Z,87.69
2022-11-21T21:26:43.347Z,87.73
2022-11-21T21:29:16.127Z,87.86
2022-11-21T21:31:50.024Z,87.80
2022-11-21T21:34:24.586Z,88.01
2022-11-21T21:36:51.584Z,88.06
2022-11-21T21:39:18.458Z,88.18
2022-11-21T21:41:46.462Z,88.31
2022-11-21T21:44:14.011Z,88.40
2022-11-21T21:46:40.826Z,88.61
2022-11-21T21:49:07.676Z,88.71
2022-11-21T21:55:14.928Z,88.95
2022-11-21T21:57:46.063Z,89.26
2022-11-21T22:00:17.870Z,89.65
2022-11-21T22:02:44.303Z,89.95
2022-11-21T22:05:10.692Z,89.96
2022-11-21T22:07:37.157Z,90.15
2022-11-21T22:10:04.028Z,90.27
2022-11-21T22:12:32.842Z,90.30
2022-11-21T22:15:01.840Z,90.54
2022-11-21T22:17:28.226Z,90.76
2022-11-21T22:19:54.660Z,90.86
2022-11-21T22:22:23.160Z,90.83
2022-11-21T22:24:49.561Z,90.91
2022-11-21T22:27:15.964Z,91.09
2022-11-21T22:29:42.509Z,91.24
2022-11-21T22:32:09.018Z,91.13
2022-11-21T22:34:35.472Z,91.06
2022-11-21T22:37:01.905Z,91.03
2022-11-21T22:39:28.380Z,91.08
2022-11-21T22:41:59.696Z,91.02
2022-11-21T22:44:26.416Z,91.04
2022-11-21T22:46:52.905Z,91.05
2022-11-21T22:49:20.117Z,91.07
2022-11-21T22:51:46.704Z,91.20
2022-11-21T22:54:13.221Z,91.29
2022-11-21T22:56:41.340Z,91.31
2022-11-21T22:59:07.730Z,91.52
2022-11-21T23:01:34.809Z,91.50
2022-11-21T23:04:02.975Z,91.72
2022-11-21T23:06:29.397Z,92.01
2022-11-21T23:08:58.059Z,92.20
2022-11-21T23:11:28.297Z,92.33
2022-11-21T23:13:56.304Z,92.30
2022-11-21T23:16:23.509Z,92.19
2022-11-21T23:18:52.857Z,92.13
2022-11-21T23:21:19.886Z,91.96
2022-11-21T23:23:46.462Z,91.82
2022-11-21T23:31:01.941Z,91.63
2022-11-21T23:33:28.557Z,91.76
2022-11-21T23:35:55.160Z,92.00
2022-11-21T23:38:21.904Z,91.98
2022-11-21T23:40:52.550Z,92.03
2022-11-21T23:43:20.538Z,92.40
2022-11-21T23:45:51.759Z,92.43
2022-11-21T23:48:19.235Z,92.57
2022-11-21T23:50:51.247Z,92.63
2022-11-21T23:53:19.489Z,93.17
2022-11-21T23:55:46.328Z,93.37
2022-11-21T23:58:13.426Z,93.53
